[ EDKA 122050Z AUTO 22009KT 9999 ///////// 15/12 Q1029 ]
Windrichtung (graph.)
Inst: 205° 8.6 kt
2min: 206° 8.9 kt
10min: 210° 8.9 kt
Extrem: 199° – 219° 10.5 kt – 7 kt
Crosswind: 6.2 kt
Luftdruck (graph.)
QNH: 1029 hPa Temp: 14.9 °C
QNH: 30.39 inHg DewP: 11.7 °C
QFE: 1006 hPa Hum: 81.0 %
QFE: 29.72 inHg